sensor_id;sensor_type;location;lat;lon;timestamp;P1;durP1;ratioP1;P2;durP2;ratioP2
40541;SDS011;49288;52.194;5.676;2022-12-05T00:01:34;90.82;;;31.50;;
40541;SDS011;49288;52.194;5.676;2022-12-05T00:06:40;109.18;;;35.53;;
40541;SDS011;49288;52.194;5.676;2022-12-05T00:11:44;89.93;;;30.92;;
40541;SDS011;49288;52.194;5.676;2022-12-05T00:16:48;111.03;;;39.70;;
40541;SDS011;49288;52.194;5.676;2022-12-05T00:21:51;111.03;;;33.17;;
40541;SDS011;49288;52.194;5.676;2022-12-05T00:27:12;114.43;;;36.92;;
40541;SDS011;49288;52.194;5.676;2022-12-05T00:32:15;104.80;;;33.22;;
40541;SDS011;49288;52.194;5.676;2022-12-05T00:37:17;108.35;;;36.05;;
40541;SDS011;49288;52.194;5.676;2022-12-05T00:42:21;95.45;;;31.95;;
40541;SDS011;49288;52.194;5.676;2022-12-05T00:47:23;108.97;;;35.53;;
40541;SDS011;49288;52.194;5.676;2022-12-05T00:52:26;99.18;;;31.15;;
40541;SDS011;49288;52.194;5.676;2022-12-05T00:57:29;95.13;;;32.28;;
40541;SDS011;49288;52.194;5.676;2022-12-05T01:02:31;123.47;;;36.22;;
40541;SDS011;49288;52.194;5.676;2022-12-05T01:07:34;117.95;;;36.00;;
40541;SDS011;49288;52.194;5.676;2022-12-05T01:12:36;116.22;;;36.30;;
40541;SDS011;49288;52.194;5.676;2022-12-05T01:17:39;131.85;;;38.00;;
40541;SDS011;49288;52.194;5.676;2022-12-05T01:22:42;132.77;;;35.60;;
40541;SDS011;49288;52.194;5.676;2022-12-05T01:27:44;130.10;;;35.58;;
40541;SDS011;49288;52.194;5.676;2022-12-05T01:32:47;135.55;;;37.65;;
40541;SDS011;49288;52.194;5.676;2022-12-05T01:37:50;103.70;;;32.60;;
40541;SDS011;49288;52.194;5.676;2022-12-05T01:42:52;129.90;;;36.88;;
40541;SDS011;49288;52.194;5.676;2022-12-05T01:47:55;134.82;;;42.05;;
40541;SDS011;49288;52.194;5.676;2022-12-05T01:52:58;138.40;;;40.15;;
40541;SDS011;49288;52.194;5.676;2022-12-05T01:58:01;134.45;;;36.10;;
40541;SDS011;49288;52.194;5.676;2022-12-05T02:03:07;118.53;;;34.33;;
40541;SDS011;49288;52.194;5.676;2022-12-05T02:08:11;124.90;;;35.00;;
40541;SDS011;49288;52.194;5.676;2022-12-05T02:18:37;146.70;;;40.75;;
40541;SDS011;49288;52.194;5.676;2022-12-05T02:34:46;143.63;;;37.42;;
40541;SDS011;49288;52.194;5.676;2022-12-05T02:45:18;116.63;;;32.80;;
40541;SDS011;49288;52.194;5.676;2022-12-05T02:50:24;123.22;;;33.67;;
40541;SDS011;49288;52.194;5.676;2022-12-05T02:55:32;135.77;;;37.42;;
40541;SDS011;49288;52.194;5.676;2022-12-05T03:00:36;130.30;;;35.00;;
40541;SDS011;49288;52.194;5.676;2022-12-05T03:05:53;128.05;;;36.88;;
40541;SDS011;49288;52.194;5.676;2022-12-05T03:11:02;146.05;;;40.08;;
40541;SDS011;49288;52.194;5.676;2022-12-05T03:16:07;85.88;;;27.55;;
40541;SDS011;49288;52.194;5.676;2022-12-05T03:27:08;120.50;;;33.00;;
40541;SDS011;49288;52.194;5.676;2022-12-05T03:33:28;109.03;;;31.77;;
40541;SDS011;49288;52.194;5.676;2022-12-05T03:38:13;122.93;;;32.88;;
40541;SDS011;49288;52.194;5.676;2022-12-05T03:54:33;104.97;;;31.33;;
40541;SDS011;49288;52.194;5.676;2022-12-05T03:59:46;101.65;;;30.50;;
40541;SDS011;49288;52.194;5.676;2022-12-05T04:05:17;100.85;;;31.58;;
40541;SDS011;49288;52.194;5.676;2022-12-05T04:10:21;112.93;;;33.08;;
40541;SDS011;49288;52.194;5.676;2022-12-05T04:15:27;107.25;;;31.52;;
40541;SDS011;49288;52.194;5.676;2022-12-05T04:20:52;107.32;;;31.27;;
40541;SDS011;49288;52.194;5.676;2022-12-05T04:26:22;95.00;;;30.40;;
40541;SDS011;49288;52.194;5.676;2022-12-05T04:31:30;107.93;;;32.08;;
40541;SDS011;49288;52.194;5.676;2022-12-05T04:41:59;111.57;;;32.00;;
40541;SDS011;49288;52.194;5.676;2022-12-05T04:47:07;125.32;;;35.30;;
40541;SDS011;49288;52.194;5.676;2022-12-05T04:52:13;111.45;;;32.58;;
40541;SDS011;49288;52.194;5.676;2022-12-05T04:57:26;99.30;;;30.48;;
40541;SDS011;49288;52.194;5.676;2022-12-05T05:02:41;105.03;;;32.88;;
40541;SDS011;49288;52.194;5.676;2022-12-05T05:07:55;133.73;;;37.45;;
40541;SDS011;49288;52.194;5.676;2022-12-05T05:12:58;98.70;;;30.70;;
40541;SDS011;49288;52.194;5.676;2022-12-05T05:18:01;109.32;;;31.40;;
40541;SDS011;49288;52.194;5.676;2022-12-05T05:23:07;127.97;;;33.55;;
40541;SDS011;49288;52.194;5.676;2022-12-05T05:28:10;136.13;;;37.90;;
40541;SDS011;49288;52.194;5.676;2022-12-05T05:33:13;129.70;;;36.45;;
40541;SDS011;49288;52.194;5.676;2022-12-05T05:38:16;143.93;;;36.35;;
40541;SDS011;49288;52.194;5.676;2022-12-05T05:43:18;119.93;;;34.17;;
40541;SDS011;49288;52.194;5.676;2022-12-05T05:48:22;129.77;;;35.43;;
40541;SDS011;49288;52.194;5.676;2022-12-05T05:53:25;135.55;;;37.60;;
40541;SDS011;49288;52.194;5.676;2022-12-05T05:58:28;124.85;;;35.10;;
40541;SDS011;49288;52.194;5.676;2022-12-05T06:03:31;145.18;;;36.30;;
40541;SDS011;49288;52.194;5.676;2022-12-05T06:08:36;154.18;;;38.17;;
40541;SDS011;49288;52.194;5.676;2022-12-05T06:13:41;132.18;;;35.35;;
40541;SDS011;49288;52.194;5.676;2022-12-05T06:18:44;167.43;;;41.50;;
40541;SDS011;49288;52.194;5.676;2022-12-05T06:23:47;138.55;;;33.42;;
40541;SDS011;49288;52.194;5.676;2022-12-05T06:28:50;183.98;;;40.05;;
40541;SDS011;49288;52.194;5.676;2022-12-05T06:33:53;168.55;;;37.03;;
40541;SDS011;49288;52.194;5.676;2022-12-05T06:38:56;176.52;;;38.92;;
40541;SDS011;49288;52.194;5.676;2022-12-05T06:43:59;187.07;;;37.40;;
40541;SDS011;49288;52.194;5.676;2022-12-05T06:49:03;179.32;;;39.47;;
40541;SDS011;49288;52.194;5.676;2022-12-05T06:54:06;184.90;;;38.78;;
40541;SDS011;49288;52.194;5.676;2022-12-05T06:59:08;218.73;;;41.78;;
40541;SDS011;49288;52.194;5.676;2022-12-05T07:04:12;181.40;;;37.63;;
40541;SDS011;49288;52.194;5.676;2022-12-05T07:09:20;193.00;;;39.58;;
40541;SDS011;49288;52.194;5.676;2022-12-05T07:14:44;164.52;;;37.28;;
40541;SDS011;49288;52.194;5.676;2022-12-05T07:19:50;196.70;;;35.92;;
40541;SDS011;49288;52.194;5.676;2022-12-05T07:24:54;190.65;;;39.47;;
40541;SDS011;49288;52.194;5.676;2022-12-05T07:29:56;172.32;;;35.00;;
40541;SDS011;49288;52.194;5.676;2022-12-05T07:35:18;199.50;;;39.72;;
40541;SDS011;49288;52.194;5.676;2022-12-05T07:40:21;204.32;;;39.03;;
40541;SDS011;49288;52.194;5.676;2022-12-05T07:45:24;186.98;;;37.75;;
40541;SDS011;49288;52.194;5.676;2022-12-05T07:50:27;153.77;;;33.83;;
40541;SDS011;49288;52.194;5.676;2022-12-05T07:55:29;172.55;;;36.33;;
40541;SDS011;49288;52.194;5.676;2022-12-05T08:00:32;187.85;;;37.03;;
40541;SDS011;49288;52.194;5.676;2022-12-05T08:05:34;163.15;;;36.17;;
40541;SDS011;49288;52.194;5.676;2022-12-05T08:10:38;195.25;;;38.00;;
40541;SDS011;49288;52.194;5.676;2022-12-05T08:15:41;166.52;;;36.92;;
40541;SDS011;49288;52.194;5.676;2022-12-05T08:20:44;165.93;;;35.85;;
40541;SDS011;49288;52.194;5.676;2022-12-05T08:25:46;151.18;;;35.45;;
40541;SDS011;49288;52.194;5.676;2022-12-05T08:30:49;150.57;;;35.10;;
40541;SDS011;49288;52.194;5.676;2022-12-05T08:35:51;149.73;;;36.05;;
40541;SDS011;49288;52.194;5.676;2022-12-05T08:40:54;140.02;;;34.95;;
40541;SDS011;49288;52.194;5.676;2022-12-05T08:45:57;145.32;;;34.88;;
40541;SDS011;49288;52.194;5.676;2022-12-05T08:51:04;144.07;;;34.40;;
40541;SDS011;49288;52.194;5.676;2022-12-05T08:56:09;138.15;;;35.58;;
40541;SDS011;49288;52.194;5.676;2022-12-05T09:01:13;145.00;;;35.83;;
40541;SDS011;49288;52.194;5.676;2022-12-05T09:06:19;113.22;;;32.33;;
40541;SDS011;49288;52.194;5.676;2022-12-05T09:11:25;117.28;;;33.05;;
40541;SDS011;49288;52.194;5.676;2022-12-05T09:16:30;96.45;;;29.00;;
40541;SDS011;49288;52.194;5.676;2022-12-05T09:21:40;96.53;;;30.00;;
40541;SDS011;49288;52.194;5.676;2022-12-05T09:26:43;93.07;;;27.52;;
40541;SDS011;49288;52.194;5.676;2022-12-05T09:31:47;93.70;;;27.98;;
40541;SDS011;49288;52.194;5.676;2022-12-05T09:36:52;96.07;;;32.40;;
40541;SDS011;49288;52.194;5.676;2022-12-05T09:42:24;84.35;;;27.58;;
40541;SDS011;49288;52.194;5.676;2022-12-05T09:52:55;89.00;;;29.80;;
40541;SDS011;49288;52.194;5.676;2022-12-05T10:03:41;90.40;;;29.67;;
40541;SDS011;49288;52.194;5.676;2022-12-05T10:14:02;82.38;;;27.23;;
40541;SDS011;49288;52.194;5.676;2022-12-05T10:19:12;96.78;;;32.05;;
40541;SDS011;49288;52.194;5.676;2022-12-05T10:24:19;92.43;;;32.55;;
40541;SDS011;49288;52.194;5.676;2022-12-05T10:29:44;79.95;;;29.20;;
40541;SDS011;49288;52.194;5.676;2022-12-05T10:34:52;80.50;;;27.20;;
40541;SDS011;49288;52.194;5.676;2022-12-05T10:39:56;77.65;;;27.50;;
40541;SDS011;49288;52.194;5.676;2022-12-05T10:45:04;86.20;;;28.70;;
40541;SDS011;49288;52.194;5.676;2022-12-05T10:50:19;68.93;;;22.92;;
40541;SDS011;49288;52.194;5.676;2022-12-05T10:55:29;69.30;;;23.48;;
40541;SDS011;49288;52.194;5.676;2022-12-05T11:00:37;51.65;;;19.08;;
40541;SDS011;49288;52.194;5.676;2022-12-05T11:05:48;47.42;;;18.52;;
40541;SDS011;49288;52.194;5.676;2022-12-05T11:16:12;49.92;;;16.50;;
40541;SDS011;49288;52.194;5.676;2022-12-05T11:21:26;40.95;;;14.65;;
40541;SDS011;49288;52.194;5.676;2022-12-05T11:26:33;41.70;;;13.25;;
40541;SDS011;49288;52.194;5.676;2022-12-05T11:31:37;39.83;;;13.55;;
40541;SDS011;49288;52.194;5.676;2022-12-05T11:36:41;30.13;;;11.15;;
40541;SDS011;49288;52.194;5.676;2022-12-05T12:08:42;25.48;;;10.35;;
40541;SDS011;49288;52.194;5.676;2022-12-05T12:40:21;17.50;;;7.30;;
40541;SDS011;49288;52.194;5.676;2022-12-05T12:51:12;20.55;;;8.80;;
40541;SDS011;49288;52.194;5.676;2022-12-05T12:56:18;13.98;;;7.03;;
40541;SDS011;49288;52.194;5.676;2022-12-05T13:01:38;17.33;;;8.23;;
40541;SDS011;49288;52.194;5.676;2022-12-05T13:06:48;19.20;;;8.63;;
40541;SDS011;49288;52.194;5.676;2022-12-05T13:11:57;18.80;;;8.80;;
40541;SDS011;49288;52.194;5.676;2022-12-05T13:17:04;17.33;;;8.60;;
40541;SDS011;49288;52.194;5.676;2022-12-05T13:22:07;17.00;;;8.30;;
40541;SDS011;49288;52.194;5.676;2022-12-05T13:27:14;21.75;;;9.50;;
40541;SDS011;49288;52.194;5.676;2022-12-05T13:32:53;17.52;;;8.25;;
40541;SDS011;49288;52.194;5.676;2022-12-05T13:37:57;17.85;;;7.80;;
40541;SDS011;49288;52.194;5.676;2022-12-05T13:43:19;15.23;;;7.32;;
40541;SDS011;49288;52.194;5.676;2022-12-05T13:48:24;15.95;;;7.68;;
40541;SDS011;49288;52.194;5.676;2022-12-05T13:58:50;13.40;;;6.32;;
40541;SDS011;49288;52.194;5.676;2022-12-05T14:03:57;14.93;;;8.20;;
40541;SDS011;49288;52.194;5.676;2022-12-05T14:09:00;14.05;;;6.95;;
40541;SDS011;49288;52.194;5.676;2022-12-05T14:14:05;18.63;;;6.95;;
40541;SDS011;49288;52.194;5.676;2022-12-05T14:19:15;18.73;;;7.43;;
40541;SDS011;49288;52.194;5.676;2022-12-05T14:24:44;13.63;;;6.85;;
40541;SDS011;49288;52.194;5.676;2022-12-05T14:35:12;14.70;;;7.17;;
40541;SDS011;49288;52.194;5.676;2022-12-05T14:40:35;13.23;;;6.63;;
40541;SDS011;49288;52.194;5.676;2022-12-05T14:45:39;14.18;;;6.18;;
40541;SDS011;49288;52.194;5.676;2022-12-05T14:50:50;13.98;;;6.95;;
40541;SDS011;49288;52.194;5.676;2022-12-05T15:01:01;12.63;;;6.25;;
40541;SDS011;49288;52.194;5.676;2022-12-05T15:06:10;14.32;;;6.97;;
40541;SDS011;49288;52.194;5.676;2022-12-05T15:11:17;13.98;;;7.10;;
40541;SDS011;49288;52.194;5.676;2022-12-05T15:16:30;17.07;;;8.50;;
40541;SDS011;49288;52.194;5.676;2022-12-05T15:21:40;16.45;;;7.80;;
40541;SDS011;49288;52.194;5.676;2022-12-05T15:26:45;14.50;;;6.90;;
40541;SDS011;49288;52.194;5.676;2022-12-05T15:31:54;16.63;;;8.43;;
40541;SDS011;49288;52.194;5.676;2022-12-05T15:42:08;14.52;;;7.80;;
40541;SDS011;49288;52.194;5.676;2022-12-05T15:47:23;13.75;;;7.10;;
40541;SDS011;49288;52.194;5.676;2022-12-05T15:53:02;14.93;;;6.90;;
40541;SDS011;49288;52.194;5.676;2022-12-05T16:09:21;14.18;;;6.85;;
40541;SDS011;49288;52.194;5.676;2022-12-05T16:14:27;14.38;;;7.10;;
40541;SDS011;49288;52.194;5.676;2022-12-05T16:19:52;19.85;;;7.43;;
40541;SDS011;49288;52.194;5.676;2022-12-05T16:24:58;13.88;;;6.53;;
40541;SDS011;49288;52.194;5.676;2022-12-05T16:30:06;18.15;;;8.10;;
40541;SDS011;49288;52.194;5.676;2022-12-05T16:35:32;17.38;;;7.25;;
40541;SDS011;49288;52.194;5.676;2022-12-05T16:45:41;17.38;;;7.55;;
40541;SDS011;49288;52.194;5.676;2022-12-05T16:50:46;16.73;;;6.35;;
40541;SDS011;49288;52.194;5.676;2022-12-05T16:55:49;18.90;;;7.68;;
40541;SDS011;49288;52.194;5.676;2022-12-05T17:00:52;15.70;;;7.45;;
40541;SDS011;49288;52.194;5.676;2022-12-05T17:06:01;17.05;;;7.65;;
40541;SDS011;49288;52.194;5.676;2022-12-05T17:11:04;19.08;;;7.72;;
40541;SDS011;49288;52.194;5.676;2022-12-05T17:16:08;18.33;;;8.07;;
40541;SDS011;49288;52.194;5.676;2022-12-05T17:21:14;18.73;;;6.43;;
40541;SDS011;49288;52.194;5.676;2022-12-05T17:26:24;14.30;;;6.73;;
40541;SDS011;49288;52.194;5.676;2022-12-05T17:31:28;15.52;;;7.28;;
40541;SDS011;49288;52.194;5.676;2022-12-05T17:36:31;13.57;;;6.47;;
40541;SDS011;49288;52.194;5.676;2022-12-05T17:41:34;15.73;;;8.27;;
40541;SDS011;49288;52.194;5.676;2022-12-05T17:46:38;18.90;;;7.28;;
40541;SDS011;49288;52.194;5.676;2022-12-05T17:57:05;14.57;;;6.88;;
40541;SDS011;49288;52.194;5.676;2022-12-05T18:02:08;18.70;;;8.02;;
40541;SDS011;49288;52.194;5.676;2022-12-05T18:07:12;16.35;;;8.13;;
40541;SDS011;49288;52.194;5.676;2022-12-05T18:12:15;16.98;;;7.82;;
40541;SDS011;49288;52.194;5.676;2022-12-05T18:17:18;20.55;;;7.72;;
40541;SDS011;49288;52.194;5.676;2022-12-05T18:22:21;15.52;;;7.85;;
40541;SDS011;49288;52.194;5.676;2022-12-05T18:27:28;16.27;;;7.18;;
40541;SDS011;49288;52.194;5.676;2022-12-05T18:32:31;23.58;;;8.65;;
40541;SDS011;49288;52.194;5.676;2022-12-05T18:37:34;14.40;;;7.60;;
40541;SDS011;49288;52.194;5.676;2022-12-05T18:42:38;20.63;;;9.10;;
40541;SDS011;49288;52.194;5.676;2022-12-05T18:47:41;21.75;;;8.60;;
40541;SDS011;49288;52.194;5.676;2022-12-05T18:52:43;19.70;;;9.45;;
40541;SDS011;49288;52.194;5.676;2022-12-05T18:57:47;18.92;;;8.43;;
40541;SDS011;49288;52.194;5.676;2022-12-05T19:02:51;20.90;;;9.37;;
40541;SDS011;49288;52.194;5.676;2022-12-05T19:07:53;17.83;;;9.25;;
40541;SDS011;49288;52.194;5.676;2022-12-05T19:12:56;22.20;;;9.85;;
40541;SDS011;49288;52.194;5.676;2022-12-05T19:17:59;17.60;;;8.02;;
40541;SDS011;49288;52.194;5.676;2022-12-05T19:23:02;15.98;;;7.97;;
40541;SDS011;49288;52.194;5.676;2022-12-05T19:28:05;17.50;;;8.75;;
40541;SDS011;49288;52.194;5.676;2022-12-05T19:33:07;20.00;;;8.75;;
40541;SDS011;49288;52.194;5.676;2022-12-05T19:38:10;17.15;;;8.13;;
40541;SDS011;49288;52.194;5.676;2022-12-05T19:43:12;19.90;;;9.98;;
40541;SDS011;49288;52.194;5.676;2022-12-05T19:48:15;21.10;;;8.95;;
40541;SDS011;49288;52.194;5.676;2022-12-05T19:53:17;22.00;;;8.65;;
40541;SDS011;49288;52.194;5.676;2022-12-05T19:58:20;18.52;;;8.93;;
40541;SDS011;49288;52.194;5.676;2022-12-05T20:03:23;22.67;;;10.02;;
40541;SDS011;49288;52.194;5.676;2022-12-05T20:08:26;22.08;;;9.30;;
40541;SDS011;49288;52.194;5.676;2022-12-05T20:13:29;21.27;;;9.10;;
40541;SDS011;49288;52.194;5.676;2022-12-05T20:18:50;20.40;;;9.27;;
40541;SDS011;49288;52.194;5.676;2022-12-05T20:23:52;26.95;;;10.35;;
40541;SDS011;49288;52.194;5.676;2022-12-05T20:28:56;20.38;;;9.63;;
40541;SDS011;49288;52.194;5.676;2022-12-05T20:33:59;24.97;;;11.37;;
40541;SDS011;49288;52.194;5.676;2022-12-05T20:39:21;22.17;;;10.27;;
40541;SDS011;49288;52.194;5.676;2022-12-05T20:44:25;26.35;;;11.27;;
40541;SDS011;49288;52.194;5.676;2022-12-05T20:49:28;25.05;;;11.10;;
40541;SDS011;49288;52.194;5.676;2022-12-05T20:54:31;24.30;;;11.35;;
40541;SDS011;49288;52.194;5.676;2022-12-05T20:59:33;26.00;;;12.40;;
40541;SDS011;49288;52.194;5.676;2022-12-05T21:04:36;27.75;;;10.48;;
40541;SDS011;49288;52.194;5.676;2022-12-05T21:09:41;25.00;;;11.80;;
40541;SDS011;49288;52.194;5.676;2022-12-05T21:14:44;25.20;;;12.05;;
40541;SDS011;49288;52.194;5.676;2022-12-05T21:19:47;24.52;;;10.65;;
40541;SDS011;49288;52.194;5.676;2022-12-05T21:24:49;23.00;;;10.38;;
40541;SDS011;49288;52.194;5.676;2022-12-05T21:30:11;17.90;;;8.25;;
40541;SDS011;49288;52.194;5.676;2022-12-05T21:35:13;22.75;;;10.35;;
40541;SDS011;49288;52.194;5.676;2022-12-05T21:40:16;24.67;;;11.73;;
40541;SDS011;49288;52.194;5.676;2022-12-05T21:45:19;21.65;;;9.43;;
40541;SDS011;49288;52.194;5.676;2022-12-05T21:50:23;23.38;;;10.90;;
40541;SDS011;49288;52.194;5.676;2022-12-05T21:55:25;23.88;;;11.05;;
40541;SDS011;49288;52.194;5.676;2022-12-05T22:00:28;18.05;;;8.95;;
40541;SDS011;49288;52.194;5.676;2022-12-05T22:05:30;20.77;;;9.90;;
40541;SDS011;49288;52.194;5.676;2022-12-05T22:10:34;20.52;;;9.32;;
40541;SDS011;49288;52.194;5.676;2022-12-05T22:15:36;22.50;;;9.10;;
40541;SDS011;49288;52.194;5.676;2022-12-05T22:20:39;22.48;;;9.50;;
40541;SDS011;49288;52.194;5.676;2022-12-05T22:25:42;19.75;;;8.35;;
40541;SDS011;49288;52.194;5.676;2022-12-05T22:30:47;25.73;;;9.52;;
40541;SDS011;49288;52.194;5.676;2022-12-05T22:35:51;27.48;;;10.50;;
40541;SDS011;49288;52.194;5.676;2022-12-05T22:41:04;23.50;;;9.35;;
40541;SDS011;49288;52.194;5.676;2022-12-05T22:46:09;20.10;;;8.40;;
40541;SDS011;49288;52.194;5.676;2022-12-05T22:51:14;22.45;;;9.05;;
40541;SDS011;49288;52.194;5.676;2022-12-05T22:56:17;26.50;;;9.25;;
40541;SDS011;49288;52.194;5.676;2022-12-05T23:06:25;26.83;;;9.45;;
40541;SDS011;49288;52.194;5.676;2022-12-05T23:11:28;16.98;;;8.20;;
40541;SDS011;49288;52.194;5.676;2022-12-05T23:16:33;21.48;;;8.55;;
40541;SDS011;49288;52.194;5.676;2022-12-05T23:21:37;26.15;;;8.68;;
40541;SDS011;49288;52.194;5.676;2022-12-05T23:26:42;19.20;;;7.78;;
40541;SDS011;49288;52.194;5.676;2022-12-05T23:31:46;18.75;;;6.85;;
40541;SDS011;49288;52.194;5.676;2022-12-05T23:36:48;23.10;;;8.07;;
40541;SDS011;49288;52.194;5.676;2022-12-05T23:41:51;20.88;;;8.32;;
40541;SDS011;49288;52.194;5.676;2022-12-05T23:46:54;17.65;;;6.80;;
40541;SDS011;49288;52.194;5.676;2022-12-05T23:51:57;16.92;;;7.30;;
40541;SDS011;49288;52.194;5.676;2022-12-05T23:56:59;18.27;;;7.18;;
